Terminal Aerodrome Forecast
Issued by NWS

Home | Current Version | Previous Version | Graphics & Text | Print | Product List | Glossary On
Versions: 1 2 3 4 5 6 7 8 9 10 11 12 13 14 15 16 17 18 19 20 21 22 23
936
FTUS41 KCLE 301128
TAFFDY
TAF
KFDY 301128Z 3012/0112 08008KT P6SM SCT040 BKN150
     FM301900 09012G20KT 6SM -RA OVC035
      TEMPO 3020/3023 5SM -RA SCT010 OVC020
     FM302300 09015KT 3SM -RA BR OVC007
     FM010800 13008KT 3SM BR VCSH BKN005 OVC010=

USA.gov is the U.S. government's official web portal to all federal, state and local government web resources and services.